Time;durP1;ratioP1;P1;durP2;ratioP2;P2;SDS_P1;SDS_P2;PMS_P1;PMS_P2;Temp;Humidity;BMP_temperature;BMP_pressure;BME280_temperature;BME280_humidity;BME280_pressure;Samples;Min_cycle;Max_cycle;Signal;HPM_P1;HPM_P2
2023/01/16 00:01:45;;;;;;;;;;;;;;;2.97;100.00;98778.16;5048697;28;19963;-76
2023/01/16 00:04:11;;;;;;;;;;;;;;;2.87;100.00;98771.03;5064754;28;19923;-76
2023/01/16 00:06:36;;;;;;;;;;;;;;;2.77;100.00;98770.03;5069708;28;19923;-78
2023/01/16 00:09:02;;;;;;;;;;;;;;;2.69;100.00;98761.97;5068071;28;20006;-76
2023/01/16 00:11:28;;;;;;;;;;;;;;;2.66;100.00;98761.34;5066781;28;19923;-77
2023/01/16 00:13:53;;;;;;;;;;;;;;;2.63;100.00;98746.78;5069462;28;19916;-78
2023/01/16 00:16:20;;;;;;;;;;;;;;;2.62;100.00;98745.13;5039689;28;20364;-76
2023/01/16 00:18:46;;;;;;;;;;;;;;;2.60;100.00;98741.78;5068257;28;19923;-77
2023/01/16 00:21:11;;;;;;;;;;;;;;;2.55;100.00;98737.84;5050004;28;19916;-77
2023/01/16 00:23:37;;;;;;;;;;;;;;;2.51;100.00;98732.06;5065326;28;19963;-77
2023/01/16 00:26:06;;;;;;;;;;;;;;;2.55;100.00;98730.03;5056110;28;19969;-78
2023/01/16 00:28:32;;;;;;;;;;;;;;;2.57;100.00;98726.41;5065002;28;20006;-76
2023/01/16 00:30:57;;;;;;;;;;;;;;;2.58;100.00;98722.03;5066537;28;19971;-76
2023/01/16 00:33:23;;;;;;;;;;;;;;;2.61;100.00;98727.81;5045704;28;19923;-76
2023/01/16 00:35:48;;;;;;;;;;;;;;;2.62;100.00;98719.06;5064193;28;20005;-77
2023/01/16 00:38:14;;;;;;;;;;;;;;;2.56;100.00;98713.47;5061669;28;19922;-76
2023/01/16 00:40:39;;;;;;;;;;;;;;;2.48;100.00;98701.03;5062466;28;19970;-76
2023/01/16 00:43:04;;;;;;;;;;;;;;;2.40;100.00;98703.38;5063471;28;19917;-76
2023/01/16 00:45:30;;;;;;;;;;;;;;;2.36;100.00;98707.13;5069286;28;19916;-76
2023/01/16 00:47:55;;;;;;;;;;;;;;;2.22;100.00;98694.28;5060557;28;19916;-78
2023/01/16 00:50:21;;;;;;;;;;;;;;;2.00;100.00;98685.41;5064555;28;19960;-79
2023/01/16 00:52:46;;;;;;;;;;;;;;;2.00;100.00;98680.22;5048924;28;19924;-78
2023/01/16 00:55:12;;;;;;;;;;;;;;;1.81;100.00;98679.06;5064144;28;19923;-77
2023/01/16 00:57:37;;;;;;;;;;;;;;;1.70;100.00;98666.81;5063069;28;19952;-75
2023/01/16 01:00:03;;;;;;;;;;;;;;;1.70;100.00;98671.19;5064320;28;19917;-76
2023/01/16 01:02:28;;;;;;;;;;;;;;;1.61;100.00;98667.47;5066243;28;19927;-78
2023/01/16 01:04:54;;;;;;;;;;;;;;;1.63;100.00;98673.41;5045529;28;19917;-78
2023/01/16 01:07:19;;;;;;;;;;;;;;;1.62;100.00;98677.75;5066511;28;19916;-77
2023/01/16 01:09:45;;;;;;;;;;;;;;;1.53;100.00;98675.00;5064358;28;20005;-78
2023/01/16 01:12:10;;;;;;;;;;;;;;;1.55;100.00;98675.69;5046108;28;19982;-78
2023/01/16 01:14:36;;;;;;;;;;;;;;;1.45;100.00;98672.09;5065226;28;19912;-78
2023/01/16 01:17:01;;;;;;;;;;;;;;;1.18;100.00;98678.25;5046131;28;19916;-79
2023/01/16 01:19:27;;;;;;;;;;;;;;;1.00;100.00;98671.69;5061792;28;19917;-78
2023/01/16 01:21:53;;;;;;;;;;;;;;;0.90;100.00;98673.28;5064509;28;19970;-78
2023/01/16 01:24:18;;;;;;;108.60;49.95;;;;;;;0.87;100.00;98676.09;5056646;28;19920;-79
2023/01/16 01:26:44;;;;;;;101.28;49.65;;;;;;;0.87;100.00;98670.06;5063413;28;20036;-78
2023/01/16 01:29:09;;;;;;;91.68;51.03;;;;;;;0.90;100.00;98660.28;5061343;28;20086;-77
2023/01/16 01:31:36;;;;;;;82.72;51.05;;;;;;;0.89;100.00;98652.59;5062455;28;20033;-75
2023/01/16 01:34:01;;;;;;;98.22;49.40;;;;;;;0.90;100.00;98649.91;5062764;28;20446;-78
2023/01/16 01:36:27;;;;;;;110.30;49.58;;;;;;;0.77;100.00;98643.88;5061654;28;20021;-78
2023/01/16 01:38:53;;;;;;;136.63;52.72;;;;;;;0.80;100.00;98638.47;5063584;28;20028;-78
2023/01/16 01:41:18;;;;;;;135.27;48.83;;;;;;;0.70;100.00;98632.25;5056934;28;20041;-77
2023/01/16 01:43:55;;;;;;;98.30;51.08;;;;;;;0.81;100.00;98642.75;5063528;28;20036;-78
2023/01/16 01:46:33;;;;;;;106.63;49.28;;;;;;;0.85;100.00;98636.41;5057055;28;20444;-77
2023/01/16 01:49:14;;;;;;;93.03;52.03;;;;;;;0.91;100.00;98632.53;5057299;28;20040;-78
2023/01/16 01:51:42;;;;;;;102.95;50.83;;;;;;;0.90;100.00;98629.13;5061411;28;20072;-78
2023/01/16 01:54:20;;;;;;;84.65;49.40;;;;;;;0.90;100.00;98626.53;5062083;28;20374;-78
2023/01/16 01:56:53;;;;;;;105.05;49.22;;;;;;;0.89;100.00;98616.22;5060214;28;20037;-79
2023/01/16 01:59:26;;;;;;;91.03;51.65;;;;;;;0.85;100.00;98610.44;5053026;28;20348;-79
2023/01/16 02:01:53;;;;;;;91.00;52.58;;;;;;;0.88;100.00;98605.03;5053951;28;20035;-78
2023/01/16 02:04:25;;;;;;;132.95;56.30;;;;;;;0.86;100.00;98596.50;5054950;28;20036;-78
2023/01/16 02:06:57;;;;;;;123.88;58.35;;;;;;;0.87;100.00;98586.94;5052651;28;20040;-79
2023/01/16 02:09:25;;;;;;;142.13;56.80;;;;;;;0.93;100.00;98581.34;5041827;28;20456;-79
2023/01/16 02:11:57;;;;;;;141.68;56.17;;;;;;;0.81;100.00;98578.66;5059329;28;20128;-79
2023/01/16 02:14:26;;;;;;;111.40;57.08;;;;;;;0.86;100.00;98580.09;5058293;28;20086;-79
2023/01/16 02:19:53;;;;;;;103.20;52.80;;;;;;;0.87;100.00;98572.19;5065807;28;20052;-78
2023/01/16 02:22:54;;;;;;;91.35;55.05;;;;;;;0.89;100.00;98556.50;5058903;28;20422;-79
2023/01/16 02:26:06;;;;;;;131.38;52.65;;;;;;;0.90;100.00;98551.19;5041894;28;20401;-79
2023/01/16 02:28:59;;;;;;;123.13;51.97;;;;;;;0.67;100.00;98559.75;5046254;28;20049;-79
2023/01/16 02:32:10;;;;;;;89.07;50.35;;;;;;;0.59;100.00;98552.47;5060911;28;20044;-78
2023/01/16 02:34:35;;;;;;;;;;;;;;;0.54;100.00;98566.69;5064637;28;20037;-78
2023/01/16 02:37:01;;;;;;;93.05;49.63;;;;;;;0.53;100.00;98562.47;5064761;28;20010;-79
2023/01/16 02:39:51;;;;;;;89.68;50.03;;;;;;;0.41;100.00;98554.56;5063386;28;20024;-78
2023/01/16 02:42:39;;;;;;;117.53;51.60;;;;;;;0.37;100.00;98545.31;5064446;28;20115;-78
2023/01/16 02:45:10;;;;;;;150.85;51.05;;;;;;;0.30;100.00;98535.44;5063091;28;20044;-77
2023/01/16 02:47:47;;;;;;;147.40;50.30;;;;;;;0.29;100.00;98539.84;5063185;28;20029;-76
2023/01/16 02:50:15;;;;;;;128.38;49.47;;;;;;;0.37;100.00;98532.34;5062032;28;20032;-77
2023/01/16 02:53:12;;;;;;;141.50;49.92;;;;;;;0.37;100.00;98532.34;5045531;28;20037;-77
2023/01/16 02:55:52;;;;;;;95.13;49.05;;;;;;;0.39;100.00;98532.25;5061663;28;20083;-78
2023/01/16 02:58:20;;;;;;;126.63;49.72;;;;;;;0.33;100.00;98530.91;5060992;28;20123;-77
2023/01/16 03:01:03;;;;;;;117.00;50.42;;;;;;;0.29;100.00;98526.88;5062792;28;20077;-78
2023/01/16 03:03:39;;;;;;;139.07;50.17;;;;;;;0.29;100.00;98519.09;5058007;28;20049;-77
2023/01/16 03:06:19;;;;;;;92.93;47.97;;;;;;;0.31;100.00;98512.00;5061829;28;20040;-78
2023/01/16 03:09:03;;;;;;;;;;;;;;;0.28;100.00;98514.81;5063675;28;20094;-77
2023/01/16 03:11:31;;;;;;;;;;;;;;;0.06;100.00;98519.78;5064987;28;19928;-75
2023/01/16 03:14:15;;;;;;;;;;;;;;;0.05;100.00;98515.53;5051282;28;20315;-77
2023/01/16 03:16:40;;;;;;;;;;;;;;;0.03;100.00;98512.22;5061597;28;19926;-76
2023/01/16 03:19:11;;;;;;;;;;;;;;;0.10;100.00;98512.63;5064834;28;20003;-77
2023/01/16 03:21:56;;;;;;;;;;;;;;;0.18;100.00;98505.97;5064858;28;20442;-77
2023/01/16 03:24:24;;;;;;;;;;;;;;;0.27;100.00;98492.41;5064214;28;19968;-77
2023/01/16 03:26:54;;;;;;;;;;;;;;;0.29;100.00;98492.31;5059083;28;19947;-76
2023/01/16 03:29:32;;;;;;;;;;;;;;;0.35;100.00;98497.06;5057877;28;19955;-76
2023/01/16 03:31:57;;;;;;;;;;;;;;;0.37;100.00;98490.84;5060045;28;20336;-76
2023/01/16 03:34:26;;;;;;;;;;;;;;;0.35;100.00;98490.09;5063803;28;19916;-75
2023/01/16 03:36:57;;;;;;;;;;;;;;;0.36;100.00;98494.34;5055655;28;20376;-77
2023/01/16 03:39:28;;;;;;;;;;;;;;;0.29;100.00;98481.94;5060458;28;19917;-75
2023/01/16 03:41:55;;;;;;;;;;;;;;;0.31;100.00;98480.88;5060699;28;20309;-76
2023/01/16 03:44:25;;;;;;;;;;;;;;;0.38;100.00;98479.53;5056027;28;19960;-76
2023/01/16 03:46:51;;;;;;;;;;;;;;;0.39;100.00;98468.22;5055325;28;19981;-76
2023/01/16 03:49:33;;;;;;;;;;;;;;;0.40;100.00;98459.50;5059134;28;19920;-76
2023/01/16 03:52:00;;;;;;;;;;;;;;;0.48;100.00;98455.50;5057528;28;20383;-78
2023/01/16 03:54:44;;;;;;;;;;;;;;;0.46;100.00;98447.03;5063541;28;20350;-77
2023/01/16 03:57:22;;;;;;;;;;;;;;;0.47;100.00;98446.09;5062885;28;19974;-77
2023/01/16 03:59:49;;;;;;;;;;;;;;;0.51;100.00;98430.19;5063333;28;19962;-79
2023/01/16 04:02:25;;;;;;;;;;;;;;;0.53;100.00;98420.50;5060118;28;19927;-78
2023/01/16 04:05:00;;;;;;;;;;;;;;;0.52;100.00;98420.63;5056250;28;20364;-77
2023/01/16 04:07:26;;;;;;;;;;;;;;;0.46;100.00;98421.91;5057006;28;19920;-78
2023/01/16 04:09:57;;;;;;;;;;;;;;;0.41;100.00;98417.00;5062886;28;20378;-78
2023/01/16 04:12:24;;;;;;;;;;;;;;;0.42;100.00;98410.06;5058830;28;19917;-75
2023/01/16 04:14:55;;;;;;;;;;;;;;;0.47;100.00;98401.97;5061664;28;20331;-77
2023/01/16 04:17:20;;;;;;;;;;;;;;;0.47;100.00;98409.75;5058979;28;19917;-77
2023/01/16 04:19:46;;;;;;;;;;;;;;;0.48;100.00;98419.19;5065972;28;19916;-78
2023/01/16 04:22:19;;;;;;;;;;;;;;;0.41;100.00;98424.78;5063225;28;19921;-77
2023/01/16 04:24:45;;;;;;;;;;;;;;;0.43;100.00;98416.91;5065691;28;19917;-76
2023/01/16 04:27:10;;;;;;;;;;;;;;;0.39;100.00;98416.31;5063447;28;19969;-77
2023/01/16 04:29:35;;;;;;;;;;;;;;;0.40;100.00;98402.41;5064413;28;19971;-78
2023/01/16 04:32:01;;;;;;;;;;;;;;;0.36;100.00;98400.94;5046514;28;19946;-78
2023/01/16 04:34:27;;;;;;;;;;;;;;;0.37;100.00;98397.41;5062691;28;19917;-78
2023/01/16 04:36:52;;;;;;;;;;;;;;;0.37;100.00;98394.81;5065485;28;19916;-78
2023/01/16 04:39:17;;;;;;;;;;;;;;;0.34;100.00;98392.44;5063239;28;19921;-77
2023/01/16 04:41:46;;;;;;;;;;;;;;;0.26;100.00;98389.56;5065234;28;19927;-78
2023/01/16 04:44:12;;;;;;;;;;;;;;;0.26;100.00;98384.34;5065408;28;19921;-77
2023/01/16 04:46:38;;;;;;;;;;;;;;;0.27;100.00;98380.84;5063397;28;20402;-78
2023/01/16 04:49:03;;;;;;;;;;;;;;;0.32;100.00;98376.16;5063587;28;19963;-78
2023/01/16 04:51:30;;;;;;;;;;;;;;;0.32;100.00;98376.16;5069634;28;20300;-77
2023/01/16 04:53:55;;;;;;;;;;;;;;;0.16;100.00;98378.16;5030991;28;19989;-78
2023/01/16 04:56:21;;;;;;;;;;;;;;;0.07;100.00;98376.19;5073476;28;19963;-76
2023/01/16 04:58:49;;;;;;;;;;;;;;;0.03;100.00;98369.56;5069987;28;19916;-78
2023/01/16 05:01:16;;;;;;;;;;;;;;;0.02;100.00;98365.31;5068629;28;20315;-77
2023/01/16 05:03:42;;;;;;;;;;;;;;;0.02;100.00;98362.72;5068712;28;20271;-76
2023/01/16 05:06:07;;;;;;;;;;;;;;;0.06;100.00;98360.75;5070251;28;19931;-79
2023/01/16 05:08:33;;;;;;;;;;;;;;;0.09;100.00;98371.72;5066841;28;19916;-78
2023/01/16 05:11:00;;;;;;;;;;;;;;;0.00;100.00;98362.00;5062580;28;19956;-78
2023/01/16 05:13:27;;;;;;;;;;;;;;;-0.04;100.00;98368.31;5047465;28;20350;-78
2023/01/16 05:15:52;;;;;;;;;;;;;;;0.04;100.00;98368.63;5071159;28;19916;-75
2023/01/16 05:18:17;;;;;;;;;;;;;;;0.03;100.00;98366.97;5047450;28;19917;-76
2023/01/16 05:20:43;;;;;;;;;;;;;;;0.00;100.00;98360.22;5070261;28;19912;-79
2023/01/16 05:23:11;;;;;;;;;;;;;;;0.04;100.00;98345.28;5054836;28;19921;-77
2023/01/16 05:25:37;;;;;;;;;;;;;;;0.10;100.00;98342.28;5071376;28;19923;-77
2023/01/16 05:28:03;;;;;;;;;;;;;;;0.11;100.00;98338.75;5078610;28;19916;-77
2023/01/16 05:30:28;;;;;;;;;;;;;;;0.12;100.00;98319.63;5069217;28;20015;-78
2023/01/16 05:32:54;;;;;;;;;;;;;;;0.15;100.00;98327.22;5068497;28;19919;-77
2023/01/16 05:35:19;;;;;;;;;;;;;;;0.22;100.00;98331.03;5073974;28;19916;-77
2023/01/16 05:37:45;;;;;;;;;;;;;;;0.25;100.00;98336.00;5070618;28;19917;-80
2023/01/16 05:40:11;;;;;;;;;;;;;;;0.29;100.00;98332.28;5064608;28;19912;-78
2023/01/16 05:42:36;;;;;;;;;;;;;;;0.34;100.00;98314.59;5070923;28;20003;-77
2023/01/16 05:45:02;;;;;;;;;;;;;;;0.41;100.00;98310.59;5073183;28;20011;-75
2023/01/16 05:47:27;;;;;;;;;;;;;;;0.47;100.00;98316.31;5069044;28;19917;-77
2023/01/16 05:49:53;;;;;;;;;;;;;;;0.51;100.00;98316.00;5064473;28;19917;-77
2023/01/16 05:52:18;;;;;;;;;;;;;;;0.55;100.00;98306.19;5068115;28;19979;-78
2023/01/16 05:54:44;;;;;;;;;;;;;;;0.54;100.00;98294.16;5065393;28;20333;-78
2023/01/16 05:57:09;;;;;;;;;;;;;;;0.58;100.00;98286.06;5065958;28;19924;-78
2023/01/16 05:59:35;;;;;;;;;;;;;;;0.57;100.00;98291.34;5070062;28;19916;-78
2023/01/16 06:02:00;;;;;;;;;;;;;;;0.52;100.00;98280.47;5064544;28;19956;-79
2023/01/16 06:04:26;;;;;;;;;;;;;;;0.47;100.00;98283.41;5068002;28;19919;-77
2023/01/16 06:06:51;;;;;;;;;;;;;;;0.43;100.00;98286.31;5062732;28;19924;-79
2023/01/16 06:09:17;;;;;;;;;;;;;;;0.44;100.00;98275.84;5067009;28;19916;-79
2023/01/16 06:11:42;;;;;;;;;;;;;;;0.46;100.00;98265.34;5064923;28;19916;-79
2023/01/16 06:14:07;;;;;;;;;;;;;;;0.50;100.00;98261.59;5062321;28;19924;-76
2023/01/16 06:16:34;;;;;;;;;;;;;;;0.53;100.00;98251.00;5060962;28;19916;-77
2023/01/16 06:19:00;;;;;;;;;;;;;;;0.61;100.00;98246.06;5066735;28;20296;-83
2023/01/16 06:21:25;;;;;;;;;;;;;;;0.62;100.00;98234.72;5064214;28;19924;-78
2023/01/16 06:23:50;;;;;;;;;;;;;;;0.63;100.00;98242.41;5049671;28;19964;-78
2023/01/16 06:26:16;;;;;;;;;;;;;;;0.67;100.00;98240.41;5066447;28;19916;-81
2023/01/16 06:28:41;;;;;;;;;;;;;;;0.74;100.00;98231.22;5067499;28;19916;-79
2023/01/16 06:31:07;;;;;;;;;;;;;;;0.79;100.00;98234.31;5064954;28;19920;-78
2023/01/16 06:33:32;;;;;;;;;;;;;;;0.82;100.00;98226.31;5050383;28;19921;-78
2023/01/16 06:35:58;;;;;;;;;;;;;;;0.84;100.00;98224.41;5053332;28;19924;-76
2023/01/16 06:38:23;;;;;;;;;;;;;;;0.85;100.00;98220.88;5054509;28;19946;-78
2023/01/16 06:40:49;;;;;;;;;;;;;;;0.88;100.00;98215.47;5054165;28;19955;-76
2023/01/16 06:43:17;;;;;;;;;;;;;;;0.93;100.00;98223.75;5043728;28;19931;-76
2023/01/16 06:45:45;;;;;;;;;;;;;;;0.95;100.00;98232.22;5054739;28;19916;-78
2023/01/16 06:48:10;;;;;;;;;;;;;;;1.00;100.00;98224.91;5057506;28;20287;-74
2023/01/16 06:50:36;;;;;;;;;;;;;;;1.04;100.00;98226.34;5056613;28;20321;-77
2023/01/16 06:53:01;;;;;;;;;;;;;;;1.07;100.00;98231.31;5061051;28;19917;-77
2023/01/16 06:55:27;;;;;;;;;;;;;;;1.12;100.00;98220.59;5035142;28;19923;-76
2023/01/16 06:57:52;;;;;;;;;;;;;;;1.14;100.00;98237.69;5045591;28;20015;-77
2023/01/16 07:00:18;;;;;;;;;;;;;;;1.15;100.00;98223.75;5059147;28;19928;-77
2023/01/16 07:02:43;;;;;;;;;;;;;;;1.16;100.00;98219.41;5059146;28;19927;-76
2023/01/16 07:05:09;;;;;;;;;;;;;;;1.15;100.00;98213.38;5063410;28;20155;-77
2023/01/16 07:07:35;;;;;;;;;;;;;;;1.12;100.00;98203.19;5059733;28;20399;-76
2023/01/16 07:10:01;;;;;;;;;;;;;;;1.12;100.00;98198.00;5059411;28;20261;-77
2023/01/16 07:12:26;;;;;;;;;;;;;;;1.14;100.00;98203.91;5065147;28;19916;-77
2023/01/16 07:23:20;;;;;;;;;;;;;;;1.25;100.00;98166.72;5055851;28;20010;-77
2023/01/16 07:25:46;;;;;;;;;;;;;;;1.24;100.00;98165.88;5041713;28;19953;-77
2023/01/16 07:28:12;;;;;;;;;;;;;;;1.28;100.00;98178.66;5068190;28;20015;-76
2023/01/16 07:30:38;;;;;;;;;;;;;;;1.31;100.00;98165.41;5058888;28;19916;-76
2023/01/16 07:33:03;;;;;;;;;;;;;;;1.30;100.00;98156.00;5060694;28;19920;-76
2023/01/16 07:35:28;;;;;;;;;;;;;;;1.36;100.00;98142.50;5063271;28;19920;-75
2023/01/16 07:37:56;;;;;;;;;;;;;;;1.40;100.00;98149.94;5076197;28;19920;-76
2023/01/16 07:40:22;;;;;;;;;;;;;;;1.44;100.00;98161.75;5077445;28;19980;-78
2023/01/16 07:42:51;;;;;;;;;;;;;;;1.38;100.00;98172.63;5067707;28;19922;-77
2023/01/16 07:45:16;;;;;;;;;;;;;;;1.30;100.00;98184.56;5041974;28;20391;-75
2023/01/16 07:47:42;;;;;;;;;;;;;;;1.28;100.00;98192.47;5070633;28;19917;-76
2023/01/16 07:50:07;;;;;;;;;;;;;;;1.22;100.00;98193.78;5064507;28;20003;-76
2023/01/16 07:52:33;;;;;;;;;;;;;;;1.17;100.00;98185.50;5064883;28;19969;-77
2023/01/16 07:54:58;;;;;;;;;;;;;;;1.15;100.00;98166.59;5062792;28;19921;-77
2023/01/16 07:57:25;;;;;;;;;;;;;;;1.14;100.00;98144.16;5065923;28;20011;-77
2023/01/16 07:59:51;;;;;;;;;;;;;;;1.16;100.00;98125.88;5060436;28;19916;-76
2023/01/16 08:02:17;;;;;;;;;;;;;;;0.97;100.00;98134.25;5056625;28;19923;-77
2023/01/16 08:04:42;;;;;;;;;;;;;;;0.79;100.00;98138.25;5062314;28;19916;-77
2023/01/16 08:07:08;;;;;;;;;;;;;;;0.81;100.00;98136.38;5041349;28;19986;-75
2023/01/16 08:09:33;;;;;;;;;;;;;;;0.78;100.00;98134.81;5059303;28;19920;-77
2023/01/16 08:11:59;;;;;;;;;;;;;;;0.77;100.00;98134.91;5056569;28;19924;-77
2023/01/16 08:14:24;;;;;;;;;;;;;;;0.79;100.00;98138.25;5067054;23;19970;-76
2023/01/16 08:16:49;;;;;;;;;;;;;;;0.73;100.00;98154.28;5035400;28;20406;-77
2023/01/16 08:19:15;;;;;;;;;;;;;;;0.69;100.00;98147.69;5034236;28;19921;-77
2023/01/16 08:21:40;;;;;;;;;;;;;;;0.63;100.00;98122.19;5035886;28;20296;-79
2023/01/16 08:24:06;;;;;;;;;;;;;;;0.62;100.00;98126.53;5041166;28;20202;-80
2023/01/16 08:26:31;;;;;;;;;;;;;;;0.67;100.00;98124.41;5039868;28;20428;-81
2023/01/16 08:28:57;;;;;;;;;;;;;;;0.72;100.00;98111.09;5044630;28;19920;-79
2023/01/16 08:31:23;;;;;;;;;;;;;;;0.79;100.00;98112.28;5040723;28;19925;-79
2023/01/16 08:33:48;;;;;;;;;;;;;;;0.76;100.00;98115.13;5042670;28;19989;-80
2023/01/16 08:36:16;;;;;;;;;;;;;;;0.71;100.00;98099.03;5038816;28;19924;-80
2023/01/16 08:38:42;;;;;;;;;;;;;;;0.69;100.00;98090.56;5039889;28;19925;-79
2023/01/16 08:51:21;;;;;;;;;;;;;;;0.69;100.00;98090.56;5038749;28;20484;-80
2023/01/16 08:52:05;;;;;;;;;;;;;;;0.84;100.00;98073.78;5041801;28;19924;-79
2023/01/16 08:54:31;;;;;;;;;;;;;;;0.82;100.00;98078.31;5043976;28;20010;-81
2023/01/16 08:56:56;;;;;;;;;;;;;;;0.85;100.00;98075.44;5044272;28;19917;-81
2023/01/16 08:59:21;;;;;;;;;;;;;;;0.84;100.00;98076.38;5040782;28;20514;-79
2023/01/16 09:01:47;;;;;;;;;;;;;;;0.84;100.00;98068.59;5043447;28;19924;-80
2023/01/16 09:04:12;;;;;;;;;;;;;;;0.86;100.00;98063.31;5041633;28;19916;-78
2023/01/16 09:06:39;;;;;;;;;;;;;;;0.89;100.00;98063.88;5041857;28;19921;-80
2023/01/16 09:09:07;;;;;;;;;;;;;;;0.92;100.00;98061.06;5042622;28;20070;-80
2023/01/16 09:14:17;;;;;;;;;;;;;;;0.93;100.00;98072.28;5040645;28;19917;-79
2023/01/16 09:16:42;;;;;;;;;;;;;;;0.95;100.00;98066.00;5042541;28;19923;-80
2023/01/16 09:19:07;;;;;;;;;;;;;;;0.94;100.00;98064.38;5042089;28;19925;-80
2023/01/16 09:21:33;;;;;;;;;;;;;;;0.97;100.00;98065.88;5041206;28;19924;-80
2023/01/16 09:23:58;;;;;;;;;;;;;;;0.93;100.00;98073.09;5043325;28;20337;-79
2023/01/16 09:26:23;;;;;;;;;;;;;;;0.92;100.00;98079.22;5040219;28;19964;-79
2023/01/16 09:28:49;;;;;;;;;;;;;;;0.95;100.00;98088.53;5042833;28;20352;-79
2023/01/16 09:31:14;;;;;;;;;;;;;;;0.95;100.00;98091.97;5041312;28;19920;-80
2023/01/16 09:33:41;;;;;;;;;;;;;;;0.96;100.00;98080.63;5041913;28;19913;-80
2023/01/16 09:36:06;;;;;;;;;;;;;;;0.97;100.00;98079.69;5057179;28;19963;-80
2023/01/16 09:38:31;;;;;;;;;;;;;;;0.96;100.00;98072.03;5040921;28;19959;-80
2023/01/16 09:40:58;;;;;;;;;;;;;;;0.91;100.00;98064.59;5041998;28;20500;-79
2023/01/16 09:43:35;;;;;;;;;;;;;;;0.89;100.00;98048.28;5035635;28;19963;-80
2023/01/16 09:46:04;;;;;;;;;;;;;;;0.85;100.00;98054.69;5040389;28;19917;-80
2023/01/16 09:48:30;;;;;;;;;;;;;;;0.88;100.00;98041.47;5041706;28;20697;-80
2023/01/16 09:50:59;;;;;;;;;;;;;;;0.92;100.00;98042.88;5042974;28;19986;-79
2023/01/16 09:59:03;;;;;;;;;;;;;;;0.82;100.00;98028.97;5035754;28;19952;-80
2023/01/16 10:01:35;;;;;;;;;;;;;;;0.85;100.00;98023.53;5036892;28;20392;-79
2023/01/16 10:04:10;;;;;;;;;;;;;;;0.89;100.00;98022.31;5057815;28;19916;-78
2023/01/16 10:06:40;;;;;;;;;;;;;;;0.94;100.00;98024.59;5039789;28;20338;-80
2023/01/16 10:09:19;;;;;;;;;;;;;;;0.97;100.00;98016.53;5039699;28;19923;-79
2023/01/16 10:11:58;;;;;;;;;;;;;;;1.01;100.00;97998.00;5040534;28;19920;-78
2023/01/16 10:14:31;;;;;;;;;;;;;;;1.07;100.00;97994.91;5035171;28;19924;-79
2023/01/16 10:17:09;;;;;;;;;;;;;;;0.95;100.00;98008.84;5035844;28;20311;-80
2023/01/16 10:19:51;;;;;;;;;;;;;;;0.97;100.00;98016.53;5039757;28;20011;-80
2023/01/16 10:22:29;;;;;;;;;;;;;;;0.97;100.00;98017.38;5040525;28;20283;-80
2023/01/16 10:25:00;;;;;;;;;;;;;;;0.97;100.00;98012.19;5035176;28;19923;-79
2023/01/16 10:27:34;;;;;;;;;;;;;;;1.03;100.00;98011.69;5035300;28;20005;-79
2023/01/16 10:30:13;;;;;;;;;;;;;;;1.08;100.00;97988.78;5035491;28;19978;-78
2023/01/16 10:32:42;;;;;;;;;;;;;;;1.11;100.00;97975.56;5032188;28;19963;-79
2023/01/16 10:35:22;;;;;;;;;;;;;;;0.96;100.00;97958.56;5050435;28;19924;-78
2023/01/16 10:37:47;;;;;;;;;;;;;;;0.94;100.00;97957.88;5034905;28;19929;-77
2023/01/16 10:40:17;;;;;;;;;;;;;;;0.97;100.00;97949.84;5037930;28;19921;-78
2023/01/16 10:51:00;;;;;;;;;;;;;;;1.10;100.00;97940.13;5032252;28;19925;-78
2023/01/16 10:53:26;;;;;;;;;;;;;;;1.01;100.00;97924.44;5038005;28;19916;-76
2023/01/16 10:55:52;;;;;;;;;;;;;;;1.03;100.00;97910.38;5039361;28;20422;-76
2023/01/16 10:58:26;;;;;;;;;;;;;;;1.10;100.00;97913.31;5044148;28;19925;-76
2023/01/16 11:00:54;;;;;;;;;;;;;;;0.99;100.00;97921.97;5029873;28;19964;-76
2023/01/16 11:03:26;;;;;;;;;;;;;;;1.02;100.00;97932.09;5035173;28;19999;-77
2023/01/16 11:06:05;;;;;;;;;;;;;;;1.03;100.00;97933.75;5036664;28;19952;-77
2023/01/16 11:08:30;;;;;;;;;;;;;;;1.07;100.00;97919.56;5038284;28;19916;-79
2023/01/16 11:10:55;;;;;;;;;;;;;;;1.13;100.00;97916.47;5038500;28;19917;-77
2023/01/16 11:18:57;;;;;;;;;;;;;;;1.22;100.00;97897.56;5040564;28;19959;-77
2023/01/16 11:21:24;;;;;;;;;;;;;;;1.26;100.00;97886.91;5041228;28;20415;-77
2023/01/16 11:23:56;;;;;;;;;;;;;;;1.30;100.00;97875.34;5045542;28;19959;-77
2023/01/16 11:26:21;;;;;;;;;;;;;;;1.33;100.00;97851.69;5065185;28;19916;-75
2023/01/16 11:28:47;;;;;;;;;;;;;;;1.35;100.00;97824.63;5043958;28;20012;-77
2023/01/16 11:31:17;;;;;;;;;;;;;;;1.39;100.00;97820.00;5043918;28;19983;-76
2023/01/16 11:33:54;;;;;;;;;;;;;;;1.45;100.00;97829.88;5044344;28;20339;-75
2023/01/16 11:36:20;;;;;;;;;;;;;;;1.46;100.00;97839.34;5064700;28;19939;-78
2023/01/16 11:38:47;;;;;;;;;;;;;;;1.48;100.00;97848.63;5057299;28;20368;-80
2023/01/16 11:41:16;;;;;;;;;;;;;;;1.49;100.00;97831.25;5041603;28;19927;-78
2023/01/16 11:46:29;;;;;;;;;;;;;;;1.52;100.00;97823.22;5041983;28;19924;-79
2023/01/16 11:48:58;;;;;;;;;;;;;;;1.53;100.00;97811.88;5037167;28;20288;-79
2023/01/16 11:51:26;;;;;;;;;;;;;;;1.55;100.00;97804.75;5038087;28;19917;-79
2023/01/16 11:53:52;;;;;;;;;;;;;;;1.57;100.00;97813.25;5068694;28;19924;-79
2023/01/16 11:56:21;;;;;;;;;;;;;;;1.51;100.00;97809.41;5042653;28;20448;-78
2023/01/16 11:59:07;;;;;;;;;;;;;;;1.47;100.00;97782.00;5044677;28;19921;-80
2023/01/16 12:04:30;;;;;;;;;;;;;;;1.47;100.00;97776.00;5042274;28;19970;-79
2023/01/16 12:06:55;;;;;;;;;;;;;;;1.52;100.00;97760.84;5044967;28;19917;-79
2023/01/16 12:09:29;;;;;;;;;;;;;;;1.54;100.00;97767.53;5041663;28;19924;-79
2023/01/16 12:11:54;;;;;;;;;;;;;;;1.54;100.00;97767.53;5037634;28;19917;-79
2023/01/16 12:14:29;;;;;;;;;;;;;;;1.48;100.00;97756.84;5044398;28;19923;-79
2023/01/16 12:17:03;;;;;;;;;;;;;;;1.52;100.00;97753.03;5035672;28;19928;-78
2023/01/16 12:19:28;;;;;;;;;;;;;;;1.52;100.00;97732.25;5035132;28;19967;-79
2023/01/16 12:21:53;;;;;;;;;;;;;;;1.57;100.00;97730.06;5042496;28;19964;-78
2023/01/16 12:24:34;;;;;;;;;;;;;;;1.61;100.00;97721.03;5043521;28;19917;-81
2023/01/16 12:27:03;;;;;;;;;;;;;;;1.63;100.00;97742.53;5053523;28;19970;-77
2023/01/16 12:29:28;;;;;;;;;;;;;;;1.63;100.00;97745.16;5044750;28;19920;-76
2023/01/16 12:31:53;;;;;;;;;;;;;;;1.61;100.00;97737.47;5039578;28;19917;-77
2023/01/16 12:34:54;;;;;;;;;;;;;;;1.58;100.00;97742.13;5037792;28;19939;-78
2023/01/16 12:37:22;;;;;;;;;;;;;;;1.65;100.00;97719.81;4991009;28;19918;-79
2023/01/16 12:39:55;;;;;;;;;;;;;;;1.70;100.00;97704.69;4987742;28;20459;-77
2023/01/16 12:45:38;;;;;;;;;;;;;;;1.66;100.00;97687.66;4989206;28;19940;-77
2023/01/16 12:48:24;;;;;;;;;;;;;;;1.73;100.00;97678.38;4982152;28;19961;-76
2023/01/16 12:51:13;;;;;;;;;;;;;;;1.70;100.00;97683.88;4986826;28;19952;-77
2023/01/16 12:53:44;;;;;;;;;;;;;;;1.71;100.00;97680.28;4988074;28;19922;-76
2023/01/16 12:56:28;;;;;;;;;;;;;;;1.72;100.00;97687.13;4990972;28;19917;-76
2023/01/16 12:59:00;;;;;;;;;;;;;;;1.75;100.00;97660.88;4986622;28;19917;-78
2023/01/16 13:01:28;;;;;;;;;;;;;;;1.83;100.00;97663.63;4981190;28;19966;-77
2023/01/16 13:03:59;;;;;;;;;;;;;;;1.89;100.00;97662.25;4989805;28;19944;-77
2023/01/16 13:06:31;;;;;;;;;;;;;;;1.90;100.00;97661.31;4987039;28;20301;-76
2023/01/16 13:09:06;;;;;;;;;;;;;;;1.93;100.00;97664.47;4988624;28;19961;-77
2023/01/16 13:14:22;;;;;;;;;;;;;;;1.90;100.00;97675.13;5038751;28;19962;-77
2023/01/16 13:16:51;;;;;;;;;;;;;;;1.95;100.00;97678.16;5035675;28;19917;-78
2023/01/16 13:19:24;;;;;;;;;;;;;;;2.01;100.00;97675.00;5038708;28;19916;-77
2023/01/16 13:21:56;;;;;;;;;;;;;;;2.01;100.00;97667.22;5037624;28;19943;-76
2023/01/16 13:24:32;;;;;;;;;;;;;;;2.05;100.00;97660.81;5040052;28;20368;-76
2023/01/16 13:27:00;;;;;;;;;;;;;;;2.08;100.00;97671.88;5039971;28;19979;-77
2023/01/16 13:29:30;;;;;;;;;;;;;;;2.05;100.00;97673.81;5034920;28;19948;-78
2023/01/16 13:31:59;;;;;;;;;;;;;;;2.12;100.00;97681.88;5032456;28;20384;-77
2023/01/16 13:34:28;;;;;;;;;;;;;;;2.11;100.00;97671.63;5036080;28;19944;-77
2023/01/16 13:37:12;;;;;;;;;;;;;;;2.14;100.00;97666.13;5037579;28;19916;-77